Time;durP1;ratioP1;P1;durP2;ratioP2;P2;SDS_P1;SDS_P2;PMS_P1;PMS_P2;Temp;Humidity;BMP_temperature;BMP_pressure;BME280_temperature;BME280_humidity;BME280_pressure;Samples;Min_cycle;Max_cycle;Signal;HPM_P1;HPM_P2
2023/12/11 00:00:27;;;;;;;;;;;8.70;99.90;;;;;;5015447;28;20036;-78
2023/12/11 00:03:13;;;;;;;;;;;8.70;99.90;;;;;;5003047;28;20223;-78
2023/12/11 00:06:00;;;;;;;;;;;8.70;99.90;;;;;;4997360;28;19910;-77
2023/12/11 00:08:46;;;;;;;;;;;8.80;99.90;;;;;;5017758;28;19960;-78
2023/12/11 00:11:32;;;;;;;;;;;8.90;99.90;;;;;;5012575;28;19976;-78
2023/12/11 00:14:18;;;;;;;;;;;9.00;99.90;;;;;;5016920;28;20225;-77
2023/12/11 00:17:04;;;;;;;;;;;9.00;99.90;;;;;;5014327;28;19909;-76
2023/12/11 00:19:50;;;;;;;;;;;9.00;99.90;;;;;;5010278;28;19913;-76
2023/12/11 00:22:36;;;;;;;;;;;9.10;99.90;;;;;;5005683;28;19928;-78
2023/12/11 00:25:22;;;;;;;;;;;9.20;99.90;;;;;;5012916;28;20540;-78
2023/12/11 00:28:08;;;;;;;;;;;9.30;99.90;;;;;;5015921;28;19917;-76
2023/12/11 00:30:54;;;;;;;;;;;9.40;99.90;;;;;;5029253;28;19924;-77
2023/12/11 00:33:40;;;;;;;;;;;9.50;99.90;;;;;;5023847;28;19909;-77
2023/12/11 00:36:27;;;;;;;;;;;9.60;99.90;;;;;;5016155;28;19910;-76
2023/12/11 00:39:16;;;;;;;;;;;9.70;99.90;;;;;;5001966;28;20326;-77
2023/12/11 00:42:02;;;;;;;;;;;9.70;99.90;;;;;;5015225;28;19920;-76
2023/12/11 00:44:48;;;;;;;;;;;9.80;99.90;;;;;;5010780;28;19914;-77
2023/12/11 00:47:34;;;;;;;;;;;9.90;99.90;;;;;;5010656;28;19910;-76
2023/12/11 00:50:20;;;;;;;;;;;9.90;99.90;;;;;;5020753;28;19925;-77
2023/12/11 00:53:07;;;;;;;;;;;9.90;99.90;;;;;;5006258;28;19909;-76
2023/12/11 00:55:53;;;;;;;;;;;9.90;99.90;;;;;;5016903;28;20227;-77
2023/12/11 00:58:39;;;;;;;;;;;9.90;99.90;;;;;;5022610;28;19924;-78
2023/12/11 01:01:25;;;;;;;;;;;9.80;99.90;;;;;;5036229;28;19909;-76
2023/12/11 01:04:11;;;;;;;;;;;9.90;99.90;;;;;;5036856;28;19909;-77
2023/12/11 01:06:57;;;;;;;;;;;9.90;99.90;;;;;;5023513;28;20317;-77
2023/12/11 01:09:43;;;;;;;;;;;9.90;99.90;;;;;;5022910;28;19913;-77
2023/12/11 01:12:29;;;;;;;;;;;9.90;99.90;;;;;;5034603;28;19920;-78
2023/12/11 01:15:16;;;;;;;;;;;9.90;99.90;;;;;;5020558;28;19944;-77
2023/12/11 01:18:03;;;;;;;;;;;9.90;99.90;;;;;;5034579;28;19909;-77
2023/12/11 01:20:50;;;;;;;;;;;9.90;99.90;;;;;;5018400;28;19921;-77
2023/12/11 01:23:36;;;;;;;;;;;9.90;99.90;;;;;;4988556;28;19984;-77
2023/12/11 01:26:23;;;;;;;;;;;9.90;99.90;;;;;;5015634;28;19921;-77
2023/12/11 01:29:09;;;;;;;;;;;9.80;99.90;;;;;;5006395;28;19909;-77
2023/12/11 01:31:55;;;;;;;;;;;9.90;99.90;;;;;;5031878;28;19928;-76
2023/12/11 01:34:41;;;;;;;;;;;10.00;99.90;;;;;;5024468;28;19909;-77
2023/12/11 01:37:27;;;;;;;;;;;9.90;99.90;;;;;;5021662;28;20670;-77
2023/12/11 01:40:13;;;;;;;;;;;9.90;99.90;;;;;;5006719;28;19913;-76
2023/12/11 01:43:12;;;;;;;;;;;9.90;99.90;;;;;;5020948;28;19959;-77
2023/12/11 01:46:04;;;;;;;;;;;10.00;99.90;;;;;;5035696;28;19992;-77
2023/12/11 01:48:50;;;;;;;;;;;10.00;99.90;;;;;;5025671;28;19909;-76
2023/12/11 01:51:36;;;;;;;;;;;10.00;99.90;;;;;;5016726;28;20330;-79
2023/12/11 01:54:22;;;;;;;;;;;10.00;99.90;;;;;;5016034;28;19999;-77
2023/12/11 01:57:08;;;;;;;;;;;10.00;99.90;;;;;;5017810;28;19917;-77
2023/12/11 01:59:55;;;;;;;;;;;10.00;99.90;;;;;;5016377;28;19925;-76
2023/12/11 02:02:41;;;;;;;;;;;10.00;99.90;;;;;;5021544;28;20280;-76
2023/12/11 02:05:27;;;;;;;;;;;10.00;99.90;;;;;;5038859;28;19909;-77
2023/12/11 02:08:14;;;;;;;;;;;10.00;99.90;;;;;;4997220;28;20349;-76
2023/12/11 02:11:00;;;;;;;;;;;10.00;99.90;;;;;;5022217;28;19913;-77
2023/12/11 02:13:47;;;;;;;;;;;10.00;99.90;;;;;;5014562;28;19921;-77
2023/12/11 02:16:33;;;;;;;;;;;10.00;99.90;;;;;;5004057;28;19913;-77
2023/12/11 02:19:19;;;;;;;;;;;10.10;99.90;;;;;;5021995;28;19920;-77
2023/12/11 02:22:05;;;;;;;;;;;10.10;99.90;;;;;;5022034;28;19913;-77
2023/12/11 02:24:53;;;;;;;;;;;10.00;99.90;;;;;;5003115;28;19963;-78
2023/12/11 02:27:40;;;;;;;;;;;10.00;99.90;;;;;;5019818;28;19913;-76
2023/12/11 02:30:27;;;;;;;;;;;10.00;99.90;;;;;;4988238;28;19965;-76
2023/12/11 02:33:13;;;;;;;;;;;10.00;99.90;;;;;;5028075;28;20253;-77
2023/12/11 02:35:58;;;;;;;;;;;10.10;99.90;;;;;;5020633;28;20026;-77
2023/12/11 02:38:44;;;;;;;;;;;10.10;99.90;;;;;;5010363;28;19945;-76
2023/12/11 02:41:30;;;;;;;;;;;10.10;99.90;;;;;;5020937;28;19943;-76
2023/12/11 02:44:16;;;;;;;;;;;10.10;99.90;;;;;;5033233;28;19909;-77
2023/12/11 02:47:02;;;;;;;;;;;10.00;99.90;;;;;;5022298;28;19909;-77
2023/12/11 02:49:48;;;;;;;;;;;10.00;99.90;;;;;;5030336;28;19940;-77
2023/12/11 02:52:34;;;;;;;;;;;10.10;99.90;;;;;;5022849;28;20352;-77
2023/12/11 02:55:20;;;;;;;;;;;10.00;99.90;;;;;;5013980;28;19959;-77
2023/12/11 02:58:06;;;;;;;;;;;10.00;99.90;;;;;;5036908;28;20014;-77
2023/12/11 03:00:52;;;;;;;;;;;10.00;99.90;;;;;;5027433;28;19968;-77
2023/12/11 03:03:38;;;;;;;;;;;10.00;99.90;;;;;;5036874;28;20351;-77
2023/12/11 03:06:24;;;;;;;;;;;10.00;99.90;;;;;;4994875;28;20236;-77
2023/12/11 03:09:10;;;;;;;;;;;9.90;99.90;;;;;;5016146;28;19988;-77
2023/12/11 03:11:56;;;;;;;;;;;9.90;99.90;;;;;;5019188;28;19940;-76
2023/12/11 03:14:42;;;;;;;;;;;9.90;99.90;;;;;;5005774;28;19987;-78
2023/12/11 03:17:29;;;;;;;;;;;9.90;99.90;;;;;;5017974;28;19914;-77
2023/12/11 03:20:15;;;;;;;;;;;9.90;99.90;;;;;;5023456;28;20332;-77
2023/12/11 03:23:01;;;;;;;;;;;9.90;99.90;;;;;;5024053;28;19955;-77
2023/12/11 03:25:47;;;;;;;;;;;9.90;99.90;;;;;;5024782;28;20423;-77
2023/12/11 03:28:33;;;;;;;;;;;9.90;99.90;;;;;;5018371;28;19921;-77
2023/12/11 03:31:19;;;;;;;;;;;9.80;99.90;;;;;;5033917;28;19920;-77
2023/12/11 03:34:05;;;;;;;;;;;9.80;99.90;;;;;;5012421;28;20306;-76
2023/12/11 03:36:52;;;;;;;;;;;9.80;99.90;;;;;;5021715;28;19909;-77
2023/12/11 03:39:38;;;;;;;;;;;9.80;99.90;;;;;;5016252;28;19988;-77
2023/12/11 03:42:25;;;;;;;;;;;9.80;99.90;;;;;;5023928;28;19940;-77
2023/12/11 03:45:11;;;;;;;;;;;9.80;99.90;;;;;;5023762;28;20322;-76
2023/12/11 03:47:57;;;;;;;;;;;9.80;99.90;;;;;;5017158;28;19917;-76
2023/12/11 03:50:44;;;;;;;;;;;9.80;99.90;;;;;;5030562;28;19967;-77
2023/12/11 03:53:30;;;;;;;;;;;9.80;99.90;;;;;;5023427;28;19920;-77
2023/12/11 03:56:16;;;;;;;;;;;9.80;99.90;;;;;;5018477;28;19909;-77
2023/12/11 03:59:02;;;;;;;;;;;9.70;99.90;;;;;;5030036;28;19975;-77
2023/12/11 04:01:48;;;;;;;;;;;9.70;99.90;;;;;;5017025;28;19996;-78
2023/12/11 04:04:34;;;;;;;;;;;9.70;99.90;;;;;;5021782;28;19921;-77
2023/12/11 04:07:20;;;;;;;;;;;9.70;99.90;;;;;;5006015;28;19909;-77
2023/12/11 04:10:06;;;;;;;;;;;9.70;99.90;;;;;;5015276;28;19913;-78
2023/12/11 04:12:52;;;;;;;;;;;9.70;99.90;;;;;;5005125;28;20233;-78
2023/12/11 04:15:38;;;;;;;;;;;9.70;99.90;;;;;;5017894;28;19924;-76
2023/12/11 04:18:24;;;;;;;;;;;9.70;99.90;;;;;;5032658;28;19921;-76
2023/12/11 04:21:09;;;;;;;;;;;9.70;99.90;;;;;;5016756;28;20298;-76
2023/12/11 04:23:55;;;;;;;;;;;9.60;99.90;;;;;;5016806;28;20000;-77
2023/12/11 04:26:41;;;;;;;;;;;9.60;99.90;;;;;;5023452;28;19914;-77
2023/12/11 04:29:27;;;;;;;;;;;9.60;99.90;;;;;;5021279;28;20043;-77
2023/12/11 04:32:13;;;;;;;;;;;9.60;99.90;;;;;;5015427;28;19921;-76
2023/12/11 04:34:59;;;;;;;;;;;9.60;99.90;;;;;;5034818;28;20245;-77
2023/12/11 04:37:45;;;;;;;;;;;9.60;99.90;;;;;;5034379;28;19935;-76
2023/12/11 04:40:31;;;;;;;;;;;9.50;99.90;;;;;;5018481;28;19908;-77
2023/12/11 04:43:17;;;;;;;;;;;9.50;99.90;;;;;;5022969;28;19923;-76
2023/12/11 04:46:03;;;;;;;;;;;9.50;99.90;;;;;;5033193;28;19913;-77
2023/12/11 04:48:49;;;;;;;;;;;9.50;99.90;;;;;;5027085;28;20309;-77
2023/12/11 04:51:35;;;;;;;;;;;9.50;99.90;;;;;;5027411;28;19913;-77
2023/12/11 04:54:21;;;;;;;;;;;9.50;99.90;;;;;;5021722;28;19920;-76
2023/12/11 04:57:07;;;;;;;;;;;9.50;99.90;;;;;;5035442;28;19988;-77
2023/12/11 04:59:53;;;;;;;;;;;9.50;99.90;;;;;;5022570;28;19929;-77
2023/12/11 05:02:39;;;;;;;;;;;9.50;99.90;;;;;;5023064;28;19963;-77
2023/12/11 05:05:25;;;;;;;;;;;9.50;99.90;;;;;;5014655;28;19944;-77
2023/12/11 05:08:11;;;;;;;;;;;9.50;99.90;;;;;;5016557;28;20011;-76
2023/12/11 05:10:57;;;;;;;;;;;9.50;99.90;;;;;;5025955;28;19920;-76
2023/12/11 05:13:43;;;;;;;;;;;9.50;99.90;;;;;;5009044;28;19991;-77
2023/12/11 05:16:29;;;;;;;;;;;9.50;99.90;;;;;;5020839;28;20287;-77
2023/12/11 05:19:15;;;;;;;;;;;9.60;99.90;;;;;;5014011;28;19909;-77
2023/12/11 05:22:01;;;;;;;;;;;9.50;99.90;;;;;;5021268;28;20321;-77
2023/12/11 05:24:48;;;;;;;;;;;9.50;99.90;;;;;;5008010;28;19920;-77
2023/12/11 05:27:33;;;;;;;;;;;9.50;99.90;;;;;;5034085;28;19913;-77
2023/12/11 05:30:19;;;;;;;;;;;9.50;99.90;;;;;;5005504;28;19913;-77
2023/12/11 05:33:05;;;;;;;;;;;9.50;99.90;;;;;;5002325;28;20311;-76
2023/12/11 05:35:51;;;;;;;;;;;9.60;99.90;;;;;;5027450;28;19920;-76
2023/12/11 05:38:37;;;;;;;;;;;9.50;99.90;;;;;;5016166;28;19909;-76
2023/12/11 05:41:23;;;;;;;;;;;9.50;99.90;;;;;;5016003;28;19944;-77
2023/12/11 05:44:09;;;;;;;;;;;9.40;99.90;;;;;;5022189;28;19909;-77
2023/12/11 05:46:55;;;;;;;;;;;9.30;99.90;;;;;;5035230;28;19984;-76
2023/12/11 05:49:42;;;;;;;;;;;9.20;99.90;;;;;;5010488;28;19909;-76
2023/12/11 05:52:28;;;;;;;;;;;9.20;99.90;;;;;;5013644;28;19932;-76
2023/12/11 05:55:14;;;;;;;;;;;9.00;99.90;;;;;;5031999;28;19920;-76
2023/12/11 05:58:00;;;;;;;;;;;9.00;99.90;;;;;;5021524;28;19909;-77
2023/12/11 06:00:46;;;;;;;;;;;9.00;99.90;;;;;;5020436;28;19971;-77
2023/12/11 06:03:32;;;;;;;;;;;8.90;99.90;;;;;;5021046;28;19909;-76
2023/12/11 06:06:18;;;;;;;;;;;8.90;99.90;;;;;;5015251;28;19937;-77
2023/12/11 06:09:04;;;;;;;;;;;8.90;99.90;;;;;;5015870;28;19945;-76
2023/12/11 06:11:50;;;;;;;;;;;8.90;99.90;;;;;;5021886;28;19948;-76
2023/12/11 06:14:40;;;;;;;;;;;8.90;99.90;;;;;;5024570;28;20327;-76
2023/12/11 06:17:25;;;;;;;;;;;8.90;99.90;;;;;;5016811;28;20223;-76
2023/12/11 06:20:11;;;;;;;;;;;8.90;99.90;;;;;;5024300;28;20035;-76
2023/12/11 06:22:57;;;;;;;;;;;8.90;99.90;;;;;;5024056;28;19982;-76
2023/12/11 06:25:44;;;;;;;;;;;8.90;99.90;;;;;;5022039;28;19999;-76
2023/12/11 06:28:30;;;;;;;;;;;8.90;99.90;;;;;;5026401;28;20385;-76
2023/12/11 06:31:16;;;;;;;;;;;8.90;99.90;;;;;;5008709;28;20036;-76
2023/12/11 06:34:02;;;;;;;;;;;8.90;99.90;;;;;;5004892;28;19924;-76
2023/12/11 06:36:49;;;;;;;;;;;8.80;99.90;;;;;;5040400;28;19909;-76
2023/12/11 06:39:35;;;;;;;;;;;8.80;99.90;;;;;;5010273;28;19913;-76
2023/12/11 06:42:21;;;;;;;;;;;8.80;99.90;;;;;;5010069;28;19913;-76
2023/12/11 06:45:08;;;;;;;;;;;8.80;99.90;;;;;;5023978;28;19909;-76
2023/12/11 06:47:54;;;;;;;;;;;8.80;99.90;;;;;;5025052;28;20044;-76
2023/12/11 06:50:41;;;;;;;;;;;8.80;99.90;;;;;;5029082;28;20352;-75
2023/12/11 06:53:29;;;;;;;;;;;8.80;99.90;;;;;;5032581;28;19920;-75
2023/12/11 06:56:19;;;;;;;;;;;8.80;99.90;;;;;;5010942;28;20317;-77
2023/12/11 06:59:05;;;;;;;;;;;8.80;99.90;;;;;;5022539;28;19979;-75
2023/12/11 07:01:50;;;;;;;;;;;8.90;99.90;;;;;;5023175;28;19909;-75
2023/12/11 07:04:37;;;;;;;;;;;8.90;99.90;;;;;;5022465;28;20325;-75
2023/12/11 07:07:23;;;;;;;;;;;8.90;99.90;;;;;;5026133;28;19913;-76
2023/12/11 07:10:09;;;;;;;;;;;8.90;99.90;;;;;;5023091;28;19909;-76
2023/12/11 07:12:58;;;;;;;;;;;8.90;99.90;;;;;;5017697;28;20602;-76
2023/12/11 07:15:44;;;;;;;;;;;8.90;99.90;;;;;;5033889;28;19945;-76
2023/12/11 07:18:31;;;;;;;;;;;8.90;99.90;;;;;;5021876;28;19948;-76
2023/12/11 07:21:18;;;;;;;;;;;8.80;99.90;;;;;;5010896;28;19986;-75
2023/12/11 07:24:04;;;;;;;;;;;8.80;99.90;;;;;;5037345;28;19909;-76
2023/12/11 07:26:50;;;;;;;;;;;8.80;99.90;;;;;;5011137;28;19967;-76
2023/12/11 07:29:36;;;;;;;;;;;8.80;99.90;;;;;;5022008;28;19917;-76
2023/12/11 07:32:22;;;;;;;;;;;8.80;99.90;;;;;;5023278;28;20384;-76
2023/12/11 07:35:11;;;;;;;;;;;8.70;99.90;;;;;;5010481;28;19913;-77
2023/12/11 07:37:57;;;;;;;;;;;8.70;99.90;;;;;;5030349;28;19909;-76
2023/12/11 07:40:43;;;;;;;;;;;8.70;99.90;;;;;;5038110;28;19913;-76
2023/12/11 07:43:29;;;;;;;;;;;8.60;99.90;;;;;;5023789;28;19952;-76
2023/12/11 07:46:19;;;;;;;;;;;8.60;99.90;;;;;;5022437;28;19943;-76
2023/12/11 07:49:06;;;;;;;;;;;8.60;99.90;;;;;;5033009;28;19916;-76
2023/12/11 07:51:53;;;;;;;;;;;8.50;99.90;;;;;;5020488;28;19913;-76
2023/12/11 07:54:40;;;;;;;;;;;8.50;99.90;;;;;;5014559;28;19909;-77
2023/12/11 07:57:28;;;;;;;;;;;8.40;99.90;;;;;;5010851;28;19924;-76
2023/12/11 08:00:14;;;;;;;;;;;8.50;99.90;;;;;;5025524;28;20034;-76
2023/12/11 08:03:00;;;;;;;;;;;8.50;99.90;;;;;;5028544;28;20454;-76
2023/12/11 08:05:46;;;;;;;;;;;8.50;99.90;;;;;;5016335;28;20016;-77
2023/12/11 08:08:32;;;;;;;;;;;8.50;99.90;;;;;;5029207;28;20262;-76
2023/12/11 08:11:22;;;;;;;;;;;8.50;99.90;;;;;;5024509;28;19917;-76
2023/12/11 08:14:08;;;;;;;;;;;8.50;99.90;;;;;;5019246;28;19928;-75
2023/12/11 08:16:54;;;;;;;;;;;8.50;99.90;;;;;;5019633;28;19913;-76
2023/12/11 08:19:40;;;;;;;;;;;8.50;99.90;;;;;;5020850;28;19909;-75
2023/12/11 08:22:26;;;;;;;;;;;8.50;99.90;;;;;;5023056;28;19909;-75
2023/12/11 08:25:13;;;;;;;;;;;8.50;99.90;;;;;;5019869;28;19959;-76
2023/12/11 08:27:59;;;;;;;;;;;8.60;99.90;;;;;;5028181;28;20538;-75
2023/12/11 08:30:45;;;;;;;;;;;8.60;99.90;;;;;;5030370;28;20015;-75
2023/12/11 08:33:31;;;;;;;;;;;8.60;99.90;;;;;;5022843;28;20372;-75
2023/12/11 08:36:17;;;;;;;;;;;8.60;99.90;;;;;;5020492;28;20207;-75
2023/12/11 08:39:03;;;;;;;;;;;8.60;99.90;;;;;;5026826;28;19909;-75
2023/12/11 08:41:50;;;;;;;;;;;8.60;99.90;;;;;;5016594;28;20218;-76
2023/12/11 08:44:36;;;;;;;;;;;8.60;99.90;;;;;;5019458;28;19923;-75
2023/12/11 08:47:22;;;;;;;;;;;8.60;99.90;;;;;;5034712;28;20683;-76
2023/12/11 08:50:08;;;;;;;;;;;8.50;99.90;;;;;;5029519;28;19917;-75
2023/12/11 08:52:54;;;;;;;;;;;8.50;99.90;;;;;;5015492;28;19928;-75
2023/12/11 08:55:40;;;;;;;;;;;8.50;99.90;;;;;;5016712;28;19919;-75
2023/12/11 08:58:27;;;;;;;;;;;8.50;99.90;;;;;;5032173;28;19925;-75
2023/12/11 09:01:13;;;;;;;;;;;8.50;99.90;;;;;;5029482;28;20346;-75
2023/12/11 09:03:59;;;;;;;;;;;8.50;99.90;;;;;;4984843;28;20204;-77
2023/12/11 09:06:45;;;;;;;;;;;8.50;99.90;;;;;;5016168;28;19975;-75
2023/12/11 09:09:31;;;;;;;;;;;8.50;99.90;;;;;;5008342;28;19910;-74
2023/12/11 09:12:17;;;;;;;;;;;8.50;99.90;;;;;;5001195;28;19992;-76
2023/12/11 09:15:04;;;;;;;;;;;8.50;99.90;;;;;;5019761;28;20401;-76
2023/12/11 09:17:53;;;;;;;;;;;8.50;99.90;;;;;;5029346;28;19933;-76
2023/12/11 09:20:38;;;;;;;;;;;8.60;99.90;;;;;;5021458;28;19913;-75
2023/12/11 09:23:24;;;;;;;;;;;8.50;99.90;;;;;;5023916;28;19967;-76
2023/12/11 09:26:10;;;;;;;;;;;8.50;99.90;;;;;;5023846;28;19913;-76
2023/12/11 09:28:56;;;;;;;;;;;8.50;99.90;;;;;;5002310;28;20599;-76
2023/12/11 09:31:43;;;;;;;;;;;8.50;99.90;;;;;;4996772;28;19989;-76
2023/12/11 09:34:29;;;;;;;;;;;8.50;99.90;;;;;;4995229;28;19920;-76
2023/12/11 09:37:18;;;;;;;;;;;8.50;99.90;;;;;;4991783;28;19909;-76
2023/12/11 09:40:06;;;;;;;;;;;8.60;99.90;;;;;;4979627;28;19962;-75
2023/12/11 09:42:54;;;;;;;;;;;8.60;99.90;;;;;;5005765;28;19921;-75
2023/12/11 09:45:40;;;;;;;;;;;8.60;99.90;;;;;;4985997;28;19945;-76
2023/12/11 09:48:26;;;;;;;;;;;8.60;99.90;;;;;;4986679;28;19909;-75
2023/12/11 09:51:15;;;;;;;;;;;8.60;99.90;;;;;;4981892;28;19917;-76
2023/12/11 09:54:01;;;;;;;;;;;8.70;99.90;;;;;;5006683;28;20040;-75
2023/12/11 09:56:47;;;;;;;;;;;8.80;99.90;;;;;;5001715;28;20000;-75
2023/12/11 09:59:34;;;;;;;;;;;8.80;99.90;;;;;;5002394;28;20370;-76
2023/12/11 10:02:25;;;;;;;;;;;8.90;99.90;;;;;;5026792;28;19975;-76
2023/12/11 10:05:11;;;;;;;;;;;8.90;99.90;;;;;;5027415;28;19967;-76
2023/12/11 10:07:57;;;;;;;;;;;8.80;99.90;;;;;;5013851;28;19913;-75
2023/12/11 10:10:45;;;;;;;;;;;8.80;99.90;;;;;;5028141;28;19932;-76
2023/12/11 10:13:31;;;;;;;;;;;8.80;99.90;;;;;;5014286;28;19909;-75
2023/12/11 10:16:30;;;;;;;;;;;8.80;99.90;;;;;;5008139;28;19918;-75
2023/12/11 10:19:16;;;;;;;;;;;8.90;99.90;;;;;;4998025;28;19914;-76
2023/12/11 10:22:03;;;;;;;;;;;8.90;99.90;;;;;;5015562;28;20250;-75
2023/12/11 10:24:49;;;;;;;;;;;8.90;99.90;;;;;;5019363;28;19997;-76
2023/12/11 10:27:35;;;;;;;;;;;8.90;99.90;;;;;;5008198;28;20207;-76
2023/12/11 10:30:22;;;;;;;;;;;8.90;99.90;;;;;;5015262;28;19914;-76
2023/12/11 10:33:09;;;;;;;;;;;8.90;99.90;;;;;;5004965;28;19917;-76
2023/12/11 10:36:13;;;;;;;;;;;8.90;99.90;;;;;;5005316;28;19910;-77
2023/12/11 10:39:10;;;;;;;;;;;8.90;99.90;;;;;;4992697;28;20289;-77
2023/12/11 10:41:57;;;;;;;;;;;8.90;99.90;;;;;;5013073;28;19921;-77
2023/12/11 10:44:44;;;;;;;;;;;8.90;99.90;;;;;;5025080;28;20341;-77
2023/12/11 10:47:30;;;;;;;;;;;8.90;99.90;;;;;;5021663;28;19910;-77
2023/12/11 10:50:16;;;;;;;;;;;8.90;99.90;;;;;;5018439;28;20318;-77
2023/12/11 10:53:03;;;;;;;;;;;8.90;99.90;;;;;;5000524;28;19920;-77
2023/12/11 10:55:51;;;;;;;;;;;8.90;99.90;;;;;;5026517;28;19953;-76
2023/12/11 10:58:37;;;;;;;;;;;8.90;99.90;;;;;;5033525;28;19948;-77
2023/12/11 11:01:23;;;;;;;;;;;8.90;99.90;;;;;;5037708;28;19908;-77
2023/12/11 11:04:10;;;;;;;;;;;8.80;99.90;;;;;;5022917;28;19992;-77
2023/12/11 11:06:58;;;;;;;;;;;8.80;99.90;;;;;;5036930;28;19947;-77
2023/12/11 11:10:03;;;;;;;;;;;8.90;99.90;;;;;;5036656;28;19909;-77
2023/12/11 11:13:08;;;;;;;;;;;8.90;99.90;;;;;;5031891;28;19917;-77
2023/12/11 11:15:54;;;;;;;;;;;8.80;99.90;;;;;;5033120;28;19912;-76
2023/12/11 11:18:59;;;;;;;;;;;8.90;99.90;;;;;;5031658;28;19909;-76
2023/12/11 11:22:11;;;;;;;;;;;8.80;99.90;;;;;;5032381;28;20377;-77
2023/12/11 11:24:56;;;;;;;;;;;8.80;99.90;;;;;;5028748;28;19913;-76
2023/12/11 11:27:44;;;;;;;;;;;8.80;99.90;;;;;;5022827;28;19909;-76
2023/12/11 11:30:45;;;;;;;;;;;8.80;99.90;;;;;;5014472;28;19923;-77
2023/12/11 11:33:44;;;;;;;;;;;8.80;99.90;;;;;;5027268;28;19936;-76
2023/12/11 11:36:48;;;;;;;;;;;8.80;99.90;;;;;;5025268;28;19935;-76
2023/12/11 11:39:53;;;;;;;;;;;8.80;99.90;;;;;;5005076;28;20282;-77
2023/12/11 11:42:40;;;;;;;;;;;8.80;99.90;;;;;;5022628;28;19920;-77
2023/12/11 11:45:26;;;;;;;;;;;8.80;99.90;;;;;;5026545;28;20397;-77
2023/12/11 11:48:12;;;;;;;;;;;8.80;99.90;;;;;;5035554;28;19921;-77
2023/12/11 11:50:59;;;;;;;;;;;8.80;99.90;;;;;;5032598;28;19927;-76
2023/12/11 11:53:45;;;;;;;;;;;8.80;99.90;;;;;;5045031;28;20000;-76
2023/12/11 11:56:31;;;;;;;;;;;8.80;99.90;;;;;;5017230;28;20408;-76
2023/12/11 11:59:17;;;;;;;;;;;8.90;99.90;;;;;;5031557;28;20491;-76
2023/12/11 12:02:03;;;;;;;;;;;8.80;99.90;;;;;;5022495;28;19994;-76
2023/12/11 12:04:49;;;;;;;;;;;8.80;99.90;;;;;;5037770;28;20221;-77
2023/12/11 12:07:39;;;;;;;;;;;8.90;99.90;;;;;;5023696;28;20328;-76
2023/12/11 12:10:25;;;;;;;;;;;8.90;99.90;;;;;;5002269;28;19969;-76
2023/12/11 12:13:11;;;;;;;;;;;8.90;99.90;;;;;;5032655;28;19909;-77
2023/12/11 12:15:59;;;;;;;;;;;8.90;99.90;;;;;;5023153;28;19909;-76
2023/12/11 12:18:49;;;;;;;;;;;8.90;99.90;;;;;;5002886;28;20005;-76
2023/12/11 12:21:51;;;;;;;;;;;8.90;99.90;;;;;;5017102;28;20307;-76
2023/12/11 12:24:38;;;;;;;;;;;9.00;99.90;;;;;;5032912;28;20310;-77
2023/12/11 12:27:24;;;;;;;;;;;9.00;99.90;;;;;;5017849;28;19915;-76
2023/12/11 12:30:10;;;;;;;;;;;9.00;99.90;;;;;;5029566;28;19913;-77
2023/12/11 12:32:56;;;;;;;;;;;9.00;99.90;;;;;;5017209;28;19909;-76
2023/12/11 12:35:42;;;;;;;;;;;9.00;99.90;;;;;;5017589;28;19941;-76
2023/12/11 12:38:28;;;;;;;;;;;9.00;99.90;;;;;;5032373;28;19920;-77
2023/12/11 12:41:15;;;;;;;;;;;9.00;99.90;;;;;;5022504;28;19923;-77
2023/12/11 12:44:01;;;;;;;;;;;9.00;99.90;;;;;;5022003;28;19919;-77
2023/12/11 12:46:47;;;;;;;;;;;8.90;99.90;;;;;;5036340;28;19909;-76
2023/12/11 12:49:33;;;;;;;;;;;9.00;99.90;;;;;;5033641;28;19908;-77
2023/12/11 12:52:23;;;;;;;;;;;9.00;99.90;;;;;;5031719;28;19983;-78
2023/12/11 12:55:09;;;;;;;;;;;9.00;99.90;;;;;;5036019;28;19920;-77
2023/12/11 12:57:56;;;;;;;;;;;9.00;99.90;;;;;;5036704;28;19935;-77
2023/12/11 13:00:42;;;;;;;;;;;9.00;99.90;;;;;;4985542;28;19925;-77
2023/12/11 13:03:28;;;;;;;;;;;9.00;99.90;;;;;;5001665;28;20002;-77
2023/12/11 13:06:27;;;;;;;;;;;8.90;99.90;;;;;;4982491;28;19918;-77
2023/12/11 13:09:29;;;;;;;;;;;8.90;99.90;;;;;;5012357;28;19924;-78
2023/12/11 13:12:18;;;;;;;;;;;8.90;99.90;;;;;;4983276;28;19917;-77
2023/12/11 13:15:08;;;;;;;;;;;8.90;99.90;;;;;;4982892;28;19924;-78
2023/12/11 13:17:54;;;;;;;;;;;8.90;99.90;;;;;;4996616;28;19910;-78
2023/12/11 13:20:40;;;;;;;;;;;8.90;99.90;;;;;;5014937;28;20330;-77
2023/12/11 13:23:28;;;;;;;;;;;8.90;99.90;;;;;;5000031;28;19913;-75
2023/12/11 13:26:14;;;;;;;;;;;8.80;99.90;;;;;;5007866;28;19941;-75
2023/12/11 13:29:00;;;;;;;;;;;8.90;99.90;;;;;;4997623;28;19921;-75
2023/12/11 13:31:47;;;;;;;;;;;8.90;99.90;;;;;;5016443;28;20286;-74
2023/12/11 13:34:34;;;;;;;;;;;8.80;99.90;;;;;;5000796;28;19913;-75
2023/12/11 13:37:20;;;;;;;;;;;8.80;99.90;;;;;;5004450;28;20460;-74
2023/12/11 13:40:06;;;;;;;;;;;8.80;99.90;;;;;;5022013;28;20004;-74
2023/12/11 13:42:52;;;;;;;;;;;8.80;99.90;;;;;;5000150;28;19913;-75
2023/12/11 13:45:39;;;;;;;;;;;8.80;99.90;;;;;;4980995;28;19920;-75
2023/12/11 13:48:25;;;;;;;;;;;8.80;99.90;;;;;;5002260;28;19910;-74
2023/12/11 13:51:11;;;;;;;;;;;8.70;99.90;;;;;;4994538;28;20016;-74
2023/12/11 13:53:57;;;;;;;;;;;8.80;99.90;;;;;;5014228;28;19913;-74
2023/12/11 13:56:43;;;;;;;;;;;8.80;99.90;;;;;;4999406;28;19913;-74
2023/12/11 13:59:29;;;;;;;;;;;8.80;99.90;;;;;;5018273;28;19914;-74
2023/12/11 14:02:16;;;;;;;;;;;8.70;99.90;;;;;;5008273;28;20510;-74
2023/12/11 14:05:03;;;;;;;;;;;8.70;99.90;;;;;;5022498;28;19924;-74
2023/12/11 14:07:51;;;;;;;;;;;8.70;99.90;;;;;;5005543;28;19913;-74
2023/12/11 14:10:37;;;;;;;;;;;8.70;99.90;;;;;;5011291;28;20333;-74
2023/12/11 14:13:23;;;;;;;;;;;8.70;99.90;;;;;;5024178;28;19928;-74
2023/12/11 14:16:10;;;;;;;;;;;8.70;99.90;;;;;;5016151;28;19924;-76
2023/12/11 14:18:56;;;;;;;;;;;8.80;99.90;;;;;;5028522;28;20503;-76
2023/12/11 14:21:42;;;;;;;;;;;8.80;99.90;;;;;;5013551;28;19909;-76
2023/12/11 14:24:28;;;;;;;;;;;8.80;99.90;;;;;;5027072;28;19971;-76
2023/12/11 14:27:14;;;;;;;;;;;8.80;99.90;;;;;;5013623;28;19909;-76
2023/12/11 14:30:00;;;;;;;;;;;8.80;99.90;;;;;;5009595;28;19960;-76
2023/12/11 14:32:47;;;;;;;;;;;8.80;99.90;;;;;;5020126;28;19913;-76
2023/12/11 14:35:33;;;;;;;;;;;8.90;99.90;;;;;;5031664;28;19909;-76
2023/12/11 14:38:19;;;;;;;;;;;8.90;99.90;;;;;;5024905;28;19992;-76
2023/12/11 14:41:06;;;;;;;;;;;8.90;99.90;;;;;;5015659;28;20286;-76
2023/12/11 14:43:52;;;;;;;;;;;8.90;99.90;;;;;;5018598;28;20319;-77
2023/12/11 14:46:38;;;;;;;;;;;8.90;99.90;;;;;;5018181;28;19924;-78
2023/12/11 14:49:25;;;;;;;;;;;8.90;99.90;;;;;;5017689;28;19923;-77
2023/12/11 14:52:11;;;;;;;;;;;8.90;99.90;;;;;;5006818;28;20274;-77
2023/12/11 14:54:58;;;;;;;;;;;8.90;99.90;;;;;;5013571;28;19909;-76
2023/12/11 14:57:44;;;;;;;;;;;8.90;99.90;;;;;;5012763;28;19914;-77
2023/12/11 15:00:30;;;;;;;;;;;8.90;99.90;;;;;;5002666;28;19940;-76
2023/12/11 15:03:17;;;;;;;;;;;8.80;99.90;;;;;;5019358;28;19909;-76
2023/12/11 15:06:05;;;;;;;;;;;8.80;99.90;;;;;;5012811;28;19914;-77
2023/12/11 15:08:52;;;;;;;;;;;8.70;99.90;;;;;;4995920;28;19913;-77
2023/12/11 15:11:39;;;;;;;;;;;8.70;99.90;;;;;;5014721;28;19933;-77
2023/12/11 15:14:28;;;;;;;;;;;8.70;99.90;;;;;;4993303;28;19917;-76
2023/12/11 15:17:13;;;;;;;;;;;8.70;99.90;;;;;;5010397;28;20303;-76
2023/12/11 15:20:06;;;;;;;;;;;8.70;99.90;;;;;;4998666;28;19910;-76
2023/12/11 15:22:51;;;;;;;;;;;8.70;99.90;;;;;;4987393;28;19914;-78
2023/12/11 15:25:37;;;;;;;;;;;8.70;99.90;;;;;;4990399;28;19917;-77
2023/12/11 15:28:25;;;;;;;;;;;8.60;99.90;;;;;;4992453;28;19932;-77
2023/12/11 15:31:11;;;;;;;;;;;8.70;99.90;;;;;;5016655;28;20681;-77
2023/12/11 15:33:57;;;;;;;;;;;8.60;99.90;;;;;;5023429;28;19913;-78
2023/12/11 15:36:42;;;;;;;;;;;8.60;99.90;;;;;;5025365;28;19964;-77
2023/12/11 15:39:28;;;;;;;;;;;8.60;99.90;;;;;;5031090;28;20353;-77
2023/12/11 15:42:14;;;;;;;;;;;8.60;99.90;;;;;;5016618;28;20266;-77
2023/12/11 15:45:00;;;;;;;;;;;8.60;99.90;;;;;;5023435;28;19909;-76
2023/12/11 15:47:46;;;;;;;;;;;8.70;99.90;;;;;;5030662;28;19909;-77
2023/12/11 15:50:34;;;;;;;;;;;8.60;99.90;;;;;;5017048;28;19917;-77
2023/12/11 15:53:20;;;;;;;;;;;8.70;99.90;;;;;;5017314;28;19924;-79
2023/12/11 15:56:08;;;;;;;;;;;8.70;99.90;;;;;;5017687;28;20365;-78
2023/12/11 15:58:55;;;;;;;;;;;8.70;99.90;;;;;;5016738;28;20242;-79
2023/12/11 16:01:45;;;;;;;;;;;8.70;99.90;;;;;;5009192;28;20467;-77
2023/12/11 16:04:31;;;;;;;;;;;8.60;99.90;;;;;;5014332;28;19909;-77
2023/12/11 16:07:17;;;;;;;;;;;8.60;99.90;;;;;;5010284;28;19914;-77
2023/12/11 16:10:03;;;;;;;;;;;8.60;99.90;;;;;;5005970;28;19913;-77
2023/12/11 16:12:49;;;;;;;;;;;8.60;99.90;;;;;;5030154;28;20344;-78
2023/12/11 16:15:35;;;;;;;;;;;8.70;99.90;;;;;;5001927;28;19929;-77
2023/12/11 16:18:21;;;;;;;;;;;8.60;99.90;;;;;;5004052;28;20230;-77
2023/12/11 16:21:07;;;;;;;;;;;8.60;99.90;;;;;;5016578;28;19971;-78
2023/12/11 16:23:56;;;;;;;;;;;8.60;99.90;;;;;;5013584;28;19945;-78